createdAt,value
2018-01-05T00:02:15.574Z,4.20
2018-01-05T00:06:58.731Z,7.37
2018-01-05T00:11:42.757Z,2.20
2018-01-05T00:16:25.416Z,3.30
2018-01-05T00:21:09.061Z,3.63
2018-01-05T00:25:51.703Z,4.10
2018-01-05T00:30:34.388Z,3.77
2018-01-05T00:35:16.972Z,5.63
2018-01-05T00:40:00.944Z,2.77
2018-01-05T00:44:44.381Z,5.93
2018-01-05T00:49:27.636Z,6.83
2018-01-05T00:54:10.233Z,6.53
2018-01-05T00:58:52.870Z,5.80
2018-01-05T01:03:35.582Z,3.73
2018-01-05T01:08:18.109Z,6.43
2018-01-05T01:13:03.520Z,4.00
2018-01-05T01:17:46.867Z,7.87
2018-01-05T01:22:29.416Z,5.50
2018-01-05T01:27:11.987Z,5.70
2018-01-05T01:31:54.838Z,7.13
2018-01-05T01:36:37.521Z,6.53
2018-01-05T01:41:20.126Z,8.07
2018-01-05T01:46:05.639Z,8.70
2018-01-05T01:50:48.200Z,8.67
2018-01-05T01:55:30.791Z,7.30
2018-01-05T02:00:13.444Z,8.93
2018-01-05T02:04:56.184Z,7.53
2018-01-05T02:09:38.775Z,8.93
2018-01-05T02:14:21.341Z,10.00
2018-01-05T02:19:07.037Z,11.23
2018-01-05T02:23:49.656Z,9.13
2018-01-05T02:28:32.211Z,8.60
2018-01-05T02:33:14.903Z,7.30
2018-01-05T02:37:57.563Z,8.17
2018-01-05T02:42:41.026Z,7.07
2018-01-05T02:47:23.675Z,10.83
2018-01-05T02:52:06.343Z,5.97
2018-01-05T02:56:48.887Z,11.53
2018-01-05T03:01:32.853Z,12.00
2018-01-05T03:06:16.274Z,10.33
2018-01-05T03:10:58.980Z,9.93
2018-01-05T03:15:41.584Z,13.20
2018-01-05T03:20:24.142Z,8.50
2018-01-05T03:25:06.820Z,11.00
2018-01-05T03:29:49.429Z,7.27
2018-01-05T03:34:32.134Z,6.30
2018-01-05T03:39:14.759Z,9.77
2018-01-05T03:43:57.380Z,10.33
2018-01-05T03:48:40.020Z,9.93
2018-01-05T03:53:22.673Z,14.13
2018-01-05T03:58:05.404Z,10.43
2018-01-05T04:02:48.048Z,11.97
2018-01-05T04:07:31.209Z,13.20
2018-01-05T04:12:13.901Z,8.93
2018-01-05T04:16:56.752Z,11.67
2018-01-05T04:21:39.424Z,10.83
2018-01-05T04:26:22.284Z,8.37
2018-01-05T04:31:05.907Z,7.70
2018-01-05T04:35:48.472Z,11.03
2018-01-05T04:40:31.133Z,8.17
2018-01-05T04:45:13.860Z,13.23
2018-01-05T04:49:56.463Z,9.77
2018-01-05T04:54:39.067Z,8.73
2018-01-05T04:59:21.721Z,13.00
2018-01-05T05:04:07.220Z,8.17
2018-01-05T05:08:49.859Z,15.27
2018-01-05T05:13:32.459Z,11.67
2018-01-05T05:18:15.144Z,14.20
2018-01-05T05:22:58.627Z,12.53
2018-01-05T05:27:41.144Z,10.33
2018-01-05T05:32:23.923Z,10.50
2018-01-05T05:37:06.611Z,9.20
2018-01-05T05:41:49.196Z,9.57
2018-01-05T05:46:31.835Z,11.17
2018-01-05T05:51:14.405Z,8.50
2018-01-05T05:55:56.980Z,12.63
2018-01-05T06:00:39.938Z,10.60
2018-01-05T06:05:22.520Z,12.13
2018-01-05T06:10:06.044Z,10.87
2018-01-05T06:14:48.544Z,10.60
2018-01-05T06:19:31.069Z,12.57
2018-01-05T06:24:13.773Z,10.27
2018-01-05T06:28:56.335Z,8.80
2018-01-05T06:33:38.958Z,9.63
2018-01-05T06:38:21.567Z,10.87
2018-01-05T06:43:07.017Z,12.43
2018-01-05T06:47:49.712Z,13.67
2018-01-05T06:52:32.311Z,10.33
2018-01-05T06:57:14.779Z,14.17
2018-01-05T07:01:57.378Z,12.60
2018-01-05T07:06:39.965Z,10.40
2018-01-05T07:11:23.280Z,10.73
2018-01-05T07:16:05.850Z,12.87
2018-01-05T07:20:48.425Z,8.63
2018-01-05T07:25:31.052Z,11.70
2018-01-05T07:30:13.653Z,9.57
2018-01-05T07:34:56.348Z,9.80
2018-01-05T07:39:39.001Z,7.93
2018-01-05T07:44:21.604Z,10.60
2018-01-05T07:49:07.826Z,5.60
2018-01-05T07:53:50.316Z,6.77
2018-01-05T07:58:32.875Z,7.87
2018-01-05T08:03:15.520Z,9.50
2018-01-05T08:07:58.072Z,11.93
2018-01-05T08:12:40.616Z,8.53
2018-01-05T08:17:23.144Z,13.30
2018-01-05T08:22:05.716Z,11.13
2018-01-05T08:26:48.255Z,11.33
2018-01-05T08:31:30.931Z,11.43
2018-01-05T08:36:13.470Z,11.37
2018-01-05T08:40:56.874Z,10.47
2018-01-05T08:45:39.444Z,7.47
2018-01-05T08:50:21.960Z,6.40
2018-01-05T08:55:05.534Z,6.17
2018-01-05T08:59:49.121Z,8.73
2018-01-05T09:04:31.709Z,5.80
2018-01-05T09:09:14.256Z,12.00
2018-01-05T09:13:56.804Z,7.07
2018-01-05T09:18:39.401Z,9.43
2018-01-05T09:23:21.951Z,8.07
2018-01-05T09:28:05.628Z,10.13
2018-01-05T09:32:48.241Z,6.90
2018-01-05T09:37:31.557Z,7.93
2018-01-05T09:42:14.067Z,8.67
2018-01-05T09:46:56.585Z,7.70
2018-01-05T09:51:39.084Z,7.33
2018-01-05T09:56:22.332Z,6.43
2018-01-05T10:01:06.695Z,7.37
2018-01-05T10:05:49.207Z,5.77
2018-01-05T10:10:32.629Z,4.90
2018-01-05T10:15:15.108Z,5.67
2018-01-05T10:19:57.604Z,6.53
2018-01-05T10:24:40.971Z,7.47
2018-01-05T10:29:24.931Z,10.87
2018-01-05T10:34:07.581Z,7.40
2018-01-05T10:38:50.189Z,5.07
2018-01-05T10:43:32.812Z,5.63
2018-01-05T10:48:15.327Z,5.97
2018-01-05T10:52:57.924Z,7.50
2018-01-05T10:57:40.432Z,4.93
2018-01-05T11:02:23.758Z,5.47
2018-01-05T11:07:07.061Z,3.40
2018-01-05T11:11:50.457Z,5.20
2018-01-05T11:16:33.097Z,5.40
2018-01-05T11:21:15.569Z,7.10
2018-01-05T11:25:58.089Z,4.37
2018-01-05T11:30:40.730Z,3.37
2018-01-05T11:35:23.256Z,3.10
2018-01-05T11:40:05.836Z,2.47
2018-01-05T11:44:48.464Z,5.27
2018-01-05T11:49:31.348Z,3.63
2018-01-05T11:54:13.903Z,4.47
2018-01-05T11:58:56.448Z,4.97
2018-01-05T12:03:39.068Z,5.00
2018-01-05T12:08:21.673Z,4.63
2018-01-05T12:13:07.108Z,5.87
2018-01-05T12:17:49.732Z,7.20
2018-01-05T12:22:32.382Z,5.67
2018-01-05T12:27:15.023Z,6.90
2018-01-05T12:31:57.610Z,6.33
2018-01-05T12:36:40.098Z,6.50
2018-01-05T12:41:22.741Z,6.90
2018-01-05T12:46:06.948Z,5.40
2018-01-05T12:50:49.517Z,7.33
2018-01-05T12:55:32.849Z,6.10
2018-01-05T13:00:16.285Z,7.73
2018-01-05T13:04:59.170Z,8.53
2018-01-05T13:09:41.890Z,9.70
2018-01-05T13:14:25.303Z,6.70
2018-01-05T13:19:07.892Z,8.57
2018-01-05T13:23:51.304Z,6.50
2018-01-05T13:28:33.912Z,4.37
2018-01-05T13:33:17.360Z,5.97
2018-01-05T13:38:00.692Z,5.57
2018-01-05T13:42:45.969Z,3.90
2018-01-05T13:47:28.982Z,4.07
2018-01-05T13:52:12.387Z,4.13
2018-01-05T13:56:55.023Z,2.70
2018-01-05T14:01:41.071Z,1.90
2018-01-05T14:06:23.738Z,5.30
2018-01-05T14:11:06.443Z,3.30
2018-01-05T14:15:49.339Z,4.43
2018-01-05T14:20:32.097Z,4.20
2018-01-05T14:25:14.675Z,3.13
2018-01-05T14:29:57.231Z,3.57
2018-01-05T14:34:39.908Z,3.83
2018-01-05T14:39:23.292Z,3.80
2018-01-05T14:44:06.104Z,3.53
2018-01-05T14:48:49.628Z,3.00
2018-01-05T14:53:32.473Z,4.57
2018-01-05T14:58:15.158Z,3.97
2018-01-05T15:03:05.422Z,3.57
2018-01-05T15:07:48.160Z,2.97
2018-01-05T15:12:35.508Z,1.90
2018-01-05T15:17:20.700Z,2.97
2018-01-05T15:22:06.099Z,1.47
2018-01-05T15:26:51.527Z,3.47
2018-01-05T15:31:34.378Z,2.63
2018-01-05T15:36:22.965Z,3.47
2018-01-05T15:41:07.016Z,2.63
2018-01-05T15:45:56.769Z,4.90
2018-01-05T15:50:42.183Z,3.20
2018-01-05T15:55:28.117Z,4.20
2018-01-05T16:00:11.015Z,3.87
2018-01-05T16:04:53.726Z,2.63
2018-01-05T16:09:36.378Z,3.40
2018-01-05T16:14:19.035Z,1.70
2018-01-05T16:19:04.490Z,6.47
2018-01-05T16:23:47.448Z,3.30
2018-01-05T16:28:30.125Z,3.80
2018-01-05T16:33:14.083Z,5.03
2018-01-05T16:38:00.079Z,15.00
2018-01-05T16:42:42.771Z,3.07
2018-01-05T16:47:25.313Z,2.97
2018-01-05T16:52:08.286Z,4.97
2018-01-05T16:56:54.278Z,2.63
2018-01-05T17:01:40.026Z,6.50
2018-01-05T17:06:24.229Z,3.03
2018-01-05T17:11:09.672Z,4.63
2018-01-05T17:15:53.662Z,4.80
2018-01-05T17:20:38.000Z,3.27
2018-01-05T17:25:21.474Z,2.67
2018-01-05T17:30:05.957Z,4.13
2018-01-05T17:34:49.649Z,3.37
2018-01-05T17:39:32.631Z,3.67
2018-01-05T17:44:16.096Z,4.03
2018-01-05T17:48:59.050Z,5.23
2018-01-05T17:53:41.849Z,2.90
2018-01-05T17:58:24.639Z,3.10
2018-01-05T18:03:11.569Z,3.97
2018-01-05T18:07:55.210Z,3.07
2018-01-05T18:12:44.831Z,3.70
2018-01-05T18:17:28.760Z,1.83
2018-01-05T18:22:11.665Z,3.17
2018-01-05T18:26:55.055Z,3.33
2018-01-05T18:31:38.012Z,3.90
2018-01-05T18:36:20.679Z,3.23
2018-01-05T18:41:05.554Z,3.67
2018-01-05T18:45:48.188Z,2.97
2018-01-05T18:50:32.140Z,3.03
2018-01-05T18:55:14.776Z,3.67
2018-01-05T18:59:58.154Z,2.63
2018-01-05T19:04:40.747Z,3.07
2018-01-05T19:09:23.323Z,3.60
2018-01-05T19:14:06.154Z,2.80
2018-01-05T19:18:48.792Z,2.47
2018-01-05T19:23:31.352Z,13.00
2018-01-05T19:28:13.957Z,3.37
2018-01-05T19:32:56.712Z,4.07
2018-01-05T19:37:39.305Z,2.53
2018-01-05T19:42:23.062Z,4.33
2018-01-05T19:47:06.038Z,4.40
2018-01-05T19:51:49.239Z,3.05
2018-01-05T19:56:31.960Z,3.07
2018-01-05T20:01:17.300Z,3.40
2018-01-05T20:10:56.918Z,3.13
2018-01-05T20:15:40.888Z,2.40
2018-01-05T20:20:23.594Z,2.77
2018-01-05T20:25:06.403Z,4.73
2018-01-05T20:29:49.003Z,1.93
2018-01-05T20:34:31.827Z,2.63
2018-01-05T20:39:14.412Z,2.07
2018-01-05T20:43:57.940Z,2.53
2018-01-05T20:48:42.323Z,2.90
2018-01-05T20:53:25.486Z,3.53
2018-01-05T20:58:08.261Z,5.13
2018-01-05T21:02:52.510Z,1.87
2018-01-05T21:07:35.338Z,2.87
2018-01-05T21:12:19.162Z,3.03
2018-01-05T21:17:05.891Z,1.40
2018-01-05T21:21:49.209Z,2.40
2018-01-05T21:26:32.716Z,1.47
2018-01-05T21:31:15.450Z,3.37
2018-01-05T21:35:59.101Z,1.10
2018-01-05T21:40:41.755Z,2.73
2018-01-05T21:45:24.452Z,1.77
2018-01-05T21:50:07.275Z,1.40
2018-01-05T21:54:49.991Z,1.90
2018-01-05T21:59:32.653Z,1.37
2018-01-05T22:04:15.424Z,3.17
2018-01-05T22:08:58.672Z,3.53
2018-01-05T22:13:41.399Z,1.10
2018-01-05T22:18:24.777Z,2.07
2018-01-05T22:23:07.661Z,2.10
2018-01-05T22:27:50.245Z,2.07
2018-01-05T22:32:35.047Z,2.03
2018-01-05T22:37:19.150Z,1.53
2018-01-05T22:42:07.039Z,1.03
2018-01-05T22:46:49.620Z,2.17
2018-01-05T22:51:32.253Z,0.90
2018-01-05T22:56:15.752Z,1.07
2018-01-05T23:00:58.366Z,1.20
2018-01-05T23:05:41.067Z,1.17
2018-01-05T23:10:24.421Z,1.17
2018-01-05T23:15:07.536Z,0.90
2018-01-05T23:19:50.100Z,0.60
2018-01-05T23:24:32.888Z,1.53
2018-01-05T23:29:15.458Z,0.50
2018-01-05T23:33:58.069Z,2.17
2018-01-05T23:38:40.709Z,0.50
2018-01-05T23:43:23.253Z,0.73
2018-01-05T23:48:07.066Z,0.60
2018-01-05T23:52:50.351Z,0.50
2018-01-05T23:57:32.908Z,0.40
